Terminal Aerodrome Forecast
Issued by NWS

Home | Current Version | Previous Version | Text Only | Print | Product List | Glossary Off
Versions: 1 2 3 4 5 6 7 8 9 10 11 12 13 14 15 16 17 18 19 20

750
FTUS43 KBIS 182339
TAFDIK
TAF
KDIK 182339Z 1900/1924 02012KT P6SM OVC040
     FM191200 02007KT P6SM VCSH OVC035
     FM191600 02008KT 2SM -SN OVC015
     FM191900 04008KT 1 1/2SM -SN OVC015
     FM192300 04007KT P6SM OVC035=

USA.gov is the U.S. government's official web portal to all federal, state and local government web resources and services.